Time;durP1;ratioP1;P1;durP2;ratioP2;P2;SDS_P1;SDS_P2;PMS_P1;PMS_P2;Temp;Humidity;BMP_temperature;BMP_pressure;BME280_temperature;BME280_humidity;BME280_pressure;Samples;Min_cycle;Max_cycle;Signal;HPM_P1;HPM_P2
2022/04/15 00:00:27;;;;;;;11.93;3.55;;;;;;;7.89;47.12;99490.66;5044836;28;20084;-44
2022/04/15 00:02:53;;;;;;;9.82;3.70;;;;;;;7.94;46.91;99501.72;5044858;28;20041;-43
2022/04/15 00:05:37;;;;;;;7.63;3.05;;;;;;;7.97;47.34;99497.31;5043202;28;20043;-43
2022/04/15 00:08:04;;;;;;;15.93;3.83;;;;;;;8.01;47.05;99491.16;5045615;28;20516;-42
2022/04/15 00:10:30;;;;;;;11.07;3.78;;;;;;;8.03;47.01;99491.97;5034810;28;20056;-42
2022/04/15 00:12:57;;;;;;;10.73;3.80;;;;;;;8.06;47.07;99480.66;5029521;28;20044;-44
2022/04/15 00:15:23;;;;;;;12.98;3.90;;;;;;;8.16;47.03;99483.88;5047562;28;20131;-43
2022/04/15 00:17:50;;;;;;;9.73;3.80;;;;;;;8.21;46.73;99475.09;5046306;28;20117;-43
2022/04/15 00:20:16;;;;;;;10.27;3.60;;;;;;;8.19;46.73;99456.16;5063771;28;20095;-43
2022/04/15 00:22:42;;;;;;;13.65;4.05;;;;;;;8.34;46.78;99471.28;5046187;28;20036;-43
2022/04/15 00:25:10;;;;;;;15.52;4.10;;;;;;;8.41;46.71;99465.03;5058273;28;20049;-43
2022/04/15 00:27:40;;;;;;;12.18;4.28;;;;;;;8.44;47.04;99464.09;5075429;28;20037;-42
2022/04/15 00:30:07;;;;;;;22.30;4.72;;;;;;;8.47;46.60;99469.19;5047295;28;20033;-43
2022/04/15 00:32:33;;;;;;;20.80;5.35;;;;;;;8.48;46.45;99469.13;5076664;28;20044;-42
2022/04/15 00:34:59;;;;;;;18.45;5.47;;;;;;;8.43;46.84;99462.38;5061205;28;20045;-42
2022/04/15 00:37:25;;;;;;;14.52;4.32;;;;;;;8.36;46.36;99441.00;5062163;28;20115;-42
2022/04/15 00:39:51;;;;;;;15.38;4.35;;;;;;;8.56;46.43;99471.50;5048062;28;20043;-41
2022/04/15 00:42:17;;;;;;;21.73;5.22;;;;;;;8.56;46.51;99471.50;5045133;28;20044;-43
2022/04/15 00:44:43;;;;;;;10.85;4.20;;;;;;;8.57;46.35;99468.03;5046910;28;20562;-45
2022/04/15 00:47:22;;;;;;;11.63;3.80;;;;;;;8.59;46.51;99474.00;5072744;28;20041;-43
2022/04/15 00:49:48;;;;;;;13.85;4.20;;;;;;;8.61;46.28;99471.38;5047552;28;20047;-44
2022/04/15 00:52:15;;;;;;;14.23;4.05;;;;;;;8.64;46.42;99472.13;5061518;28;20471;-43
2022/04/15 00:54:43;;;;;;;10.90;4.03;;;;;;;8.65;46.39;99480.75;5046639;28;20416;-43
2022/04/15 00:57:11;;;;;;;12.15;4.28;;;;;;;8.62;46.77;99465.31;5043056;28;20834;-46
2022/04/15 00:59:38;;;;;;;17.25;4.50;;;;;;;8.67;46.68;99476.38;5053168;28;20037;-45
2022/04/15 01:02:04;;;;;;;16.20;4.57;;;;;;;8.69;46.73;99477.19;5045082;28;20142;-45
2022/04/15 01:04:31;;;;;;;27.13;4.80;;;;;;;8.69;46.69;99467.66;5087154;28;20139;-42
2022/04/15 01:07:01;;;;;;;17.25;4.25;;;;;;;8.70;46.73;99471.09;5046065;28;20037;-44
2022/04/15 01:09:27;;;;;;;14.00;4.68;;;;;;;8.70;46.80;99476.28;5050178;28;20080;-44
2022/04/15 01:11:53;;;;;;;11.70;4.07;;;;;;;8.63;47.16;99470.44;5047711;28;20094;-45
2022/04/15 01:14:19;;;;;;;16.35;4.35;;;;;;;8.64;47.40;99471.25;5028225;28;20041;-42
2022/04/15 01:16:45;;;;;;;13.38;4.25;;;;;;;8.63;47.53;99474.78;5066024;28;20566;-42
2022/04/15 01:19:11;;;;;;;15.40;4.05;;;;;;;8.58;47.47;99476.66;5047961;28;20032;-45
2022/04/15 01:21:38;;;;;;;16.40;4.47;;;;;;;8.58;47.75;99477.50;5045818;28;20080;-44
2022/04/15 01:24:04;;;;;;;24.00;4.90;;;;;;;8.56;47.85;99465.47;5054877;28;20039;-43
2022/04/15 01:26:31;;;;;;;18.63;4.97;;;;;;;8.56;48.17;99448.19;5048797;28;20048;-44
2022/04/15 01:28:57;;;;;;;13.57;3.95;;;;;;;8.70;48.33;99458.13;5040583;28;20072;-43
2022/04/15 01:31:25;;;;;;;19.77;4.97;;;;;;;8.75;47.96;99461.44;5045218;28;20049;-44
2022/04/15 01:33:50;;;;;;;14.73;4.47;;;;;;;8.77;48.08;99460.50;5040844;28;20535;-44
2022/04/15 01:36:16;;;;;;;10.35;4.30;;;;;;;8.76;48.32;99450.16;5023781;28;20068;-43
2022/04/15 01:38:42;;;;;;;18.15;4.78;;;;;;;8.74;48.10;99455.38;5029616;28;20086;-43
2022/04/15 01:41:08;;;;;;;14.95;4.40;;;;;;;8.71;48.25;99457.25;5051422;28;20060;-43
2022/04/15 01:43:34;;;;;;;14.40;5.03;;;;;;;8.61;48.09;99438.53;5050523;28;20033;-43
2022/04/15 01:45:59;;;;;;;14.05;4.72;;;;;;;8.68;48.25;99450.44;5051610;28;20048;-43
2022/04/15 01:48:25;;;;;;;14.63;4.40;;;;;;;8.69;48.32;99451.28;5047791;28;20099;-44
2022/04/15 01:50:51;;;;;;;12.68;4.70;;;;;;;8.59;48.31;99432.53;5048966;28;20094;-44
2022/04/15 01:53:16;;;;;;;8.77;4.38;;;;;;;8.54;48.30;99421.47;5048994;28;20162;-45
2022/04/15 01:55:42;;;;;;;10.55;4.70;;;;;;;8.72;48.50;99449.44;5041978;28;20558;-43
2022/04/15 01:58:08;;;;;;;12.70;4.45;;;;;;;8.64;48.45;99435.00;5041293;28;20040;-44
2022/04/15 02:00:33;;;;;;;11.13;4.40;;;;;;;8.71;48.54;99446.88;5046713;28;20123;-44
2022/04/15 02:02:59;;;;;;;15.68;5.30;;;;;;;8.71;48.63;99439.94;5047308;28;20041;-43
2022/04/15 02:05:25;;;;;;;12.77;4.90;;;;;;;8.76;48.73;99442.41;5048922;28;20099;-44
2022/04/15 02:07:50;;;;;;;16.13;5.03;;;;;;;8.74;49.00;99439.84;5059837;28;20076;-43
2022/04/15 02:10:16;;;;;;;10.43;4.88;;;;;;;8.76;49.05;99448.44;5055926;28;20110;-44
2022/04/15 02:12:42;;;;;;;10.10;4.43;;;;;;;8.65;48.69;99429.75;5049611;28;20504;-44
2022/04/15 02:15:08;;;;;;;15.30;4.82;;;;;;;8.74;48.91;99437.25;5062257;28;20045;-43
2022/04/15 02:17:34;;;;;;;10.40;4.40;;;;;;;8.63;49.14;99422.94;5028635;28;20361;-44
2022/04/15 02:19:59;;;;;;;9.05;4.50;;;;;;;8.69;49.47;99440.91;5064912;28;20591;-43
2022/04/15 02:22:25;;;;;;;16.90;6.15;;;;;;;8.65;49.45;99439.28;5048471;28;20051;-47
2022/04/15 02:24:51;;;;;;;14.38;4.95;;;;;;;8.60;49.64;99441.16;5047859;28;20119;-44
2022/04/15 02:27:17;;;;;;;14.35;5.78;;;;;;;8.57;49.77;99443.88;5062420;28;20072;-44
2022/04/15 02:29:42;;;;;;;15.30;5.38;;;;;;;8.52;49.66;99443.16;5031083;28;20059;-44
2022/04/15 02:32:08;;;;;;;12.57;4.80;;;;;;;8.45;49.93;99443.31;5048234;28;20136;-43
2022/04/15 02:34:34;;;;;;;15.93;5.78;;;;;;;8.41;50.06;99444.31;5046281;28;20036;-42
2022/04/15 02:37:00;;;;;;;15.10;5.38;;;;;;;8.37;50.04;99447.06;5038223;28;20040;-45
2022/04/15 02:39:25;;;;;;;25.63;7.75;;;;;;;8.21;50.23;99449.19;5047530;28;20532;-42
2022/04/15 02:41:52;;;;;;;14.40;4.95;;;;;;;8.18;50.60;99446.69;5039087;28;20053;-44
2022/04/15 02:44:18;;;;;;;22.00;5.68;;;;;;;8.13;50.17;99440.78;5043107;28;20037;-44
2022/04/15 02:46:44;;;;;;;11.07;5.53;;;;;;;8.12;50.47;99444.25;5053955;28;20127;-44
2022/04/15 02:49:11;;;;;;;16.15;5.63;;;;;;;8.07;50.74;99439.22;5048174;28;20495;-43
2022/04/15 02:51:37;;;;;;;15.05;5.47;;;;;;;8.02;50.33;99438.50;5046710;28;20051;-44
2022/04/15 02:54:03;;;;;;;18.30;5.95;;;;;;;7.82;51.29;99445.09;5047517;28;20119;-43
2022/04/15 02:56:28;;;;;;;14.48;5.57;;;;;;;7.64;51.65;99433.53;5049481;28;20109;-43
2022/04/15 02:58:54;;;;;;;14.00;5.47;;;;;;;7.68;51.81;99437.72;5047705;28;20037;-44
2022/04/15 03:01:20;;;;;;;17.50;5.88;;;;;;;7.66;51.62;99431.72;5053092;28;20059;-44
2022/04/15 03:03:45;;;;;;;16.15;5.38;;;;;;;7.73;51.60;99440.19;5049664;28;20052;-44
2022/04/15 03:06:14;;;;;;;17.05;6.03;;;;;;;7.74;51.52;99436.72;5047943;28;20049;-43
2022/04/15 03:08:40;;;;;;;14.65;5.80;;;;;;;7.75;51.81;99447.00;5048639;28;20047;-44
2022/04/15 03:11:07;;;;;;;19.08;6.30;;;;;;;7.77;52.24;99442.66;5047178;28;20044;-45
2022/04/15 03:13:34;;;;;;;18.98;6.25;;;;;;;7.78;52.14;99440.91;5053896;28;20204;-43
2022/04/15 03:16:00;;;;;;;15.98;6.68;;;;;;;7.76;52.22;99440.09;5056489;28;20039;-42
2022/04/15 03:18:26;;;;;;;15.50;6.40;;;;;;;7.75;52.19;99428.88;5048394;28;20037;-43
2022/04/15 03:20:52;;;;;;;19.80;6.40;;;;;;;7.75;52.25;99430.63;5046746;28;20053;-44
2022/04/15 03:23:19;;;;;;;20.45;5.88;;;;;;;7.75;52.17;99439.25;5046512;28;20048;-45
2022/04/15 03:25:46;;;;;;;19.63;6.50;;;;;;;7.75;52.68;99438.38;5042443;28;20041;-46
2022/04/15 03:28:13;;;;;;;16.67;6.35;;;;;;;7.63;52.22;99419.75;5045106;28;20037;-45
2022/04/15 03:30:39;;;;;;;19.77;6.60;;;;;;;7.59;52.20;99432.78;5047745;28;20866;-43
2022/04/15 03:33:04;;;;;;;19.88;6.70;;;;;;;7.63;52.14;99439.59;5039836;28;20052;-43
2022/04/15 03:35:30;;;;;;;20.10;6.50;;;;;;;7.69;52.56;99433.41;5039776;28;20041;-43
2022/04/15 03:37:56;;;;;;;17.42;6.22;;;;;;;7.76;52.33;99437.50;5047852;28;20045;-44
2022/04/15 03:40:22;;;;;;;17.88;5.93;;;;;;;7.74;52.31;99421.19;5032135;28;20052;-44
2022/04/15 03:42:50;;;;;;;16.33;6.47;;;;;;;7.92;52.00;99436.19;5046356;28;20115;-44
2022/04/15 03:45:19;;;;;;;22.63;6.80;;;;;;;8.02;52.44;99432.47;5045236;28;20040;-44
2022/04/15 03:47:51;;;;;;;15.88;6.50;;;;;;;8.09;52.14;99432.25;5046278;28;20036;-44
2022/04/15 03:50:18;;;;;;;22.73;7.22;;;;;;;8.29;51.91;99428.25;5048085;28;20051;-45
2022/04/15 03:52:46;;;;;;;16.27;6.78;;;;;;;8.58;51.64;99441.22;5046335;28;20040;-43
2022/04/15 03:55:20;;;;;;;17.05;6.60;;;;;;;8.78;50.60;99431.09;5046827;28;20036;-43
2022/04/15 03:57:47;;;;;;;19.73;6.88;;;;;;;8.95;50.22;99430.53;5044940;28;20513;-44
2022/04/15 04:00:18;;;;;;;21.38;7.78;;;;;;;9.13;49.68;99423.94;5050790;28;20051;-47
2022/04/15 04:02:45;;;;;;;19.02;7.25;;;;;;;9.26;49.15;99427.84;5042134;28;20069;-45
2022/04/15 04:05:11;;;;;;;16.52;7.03;;;;;;;9.38;48.74;99431.75;5047242;28;20131;-44
2022/04/15 04:07:37;;;;;;;23.95;6.43;;;;;;;9.46;48.48;99427.16;5062519;28;20143;-44
2022/04/15 04:10:03;;;;;;;16.00;6.20;;;;;;;9.48;48.62;99410.63;5046224;28;20033;-45
2022/04/15 04:12:33;;;;;;;15.32;6.75;;;;;;;9.63;48.42;99423.06;5046928;28;20041;-45
2022/04/15 04:15:03;;;;;;;16.75;5.82;;;;;;;9.71;47.73;99421.06;5047577;28;20091;-43
2022/04/15 04:17:29;;;;;;;17.25;5.70;;;;;;;9.79;47.41;99413.84;5046008;28;20029;-43
2022/04/15 04:19:55;;;;;;;17.17;5.63;;;;;;;9.77;46.48;99399.25;5045131;28;20044;-45
2022/04/15 04:22:21;;;;;;;14.32;5.20;;;;;;;9.80;46.73;99409.50;5033355;28;20032;-46
2022/04/15 04:24:47;;;;;;;20.88;5.28;;;;;;;9.85;46.37;99406.75;5052051;28;20059;-44
2022/04/15 04:27:12;;;;;;;17.00;5.65;;;;;;;9.96;45.95;99409.81;5055249;28;20044;-44
2022/04/15 04:29:38;;;;;;;14.50;4.65;;;;;;;9.89;45.31;99382.38;5047187;28;20048;-43
2022/04/15 04:32:04;;;;;;;13.77;5.65;;;;;;;10.08;45.89;99406.78;5040370;28;20064;-47
2022/04/15 04:34:30;;;;;;;18.77;5.05;;;;;;;10.14;45.23;99402.19;5052102;28;20041;-43
2022/04/15 04:36:55;;;;;;;16.05;5.28;;;;;;;10.26;45.13;99403.50;5055573;28;20432;-43
2022/04/15 04:39:25;;;;;;;12.02;4.97;;;;;;;10.38;44.78;99410.00;5047038;28;20028;-45
2022/04/15 04:41:51;;;;;;;16.95;5.45;;;;;;;10.29;44.90;99405.16;5046425;28;20148;-46
2022/04/15 04:44:17;;;;;;;16.02;5.50;;;;;;;10.44;44.24;99399.38;5078056;28;20137;-44
2022/04/15 04:46:43;;;;;;;23.77;6.57;;;;;;;10.58;44.55;99394.47;5070464;28;20034;-44
2022/04/15 04:49:08;;;;;;;21.98;6.05;;;;;;;10.75;44.42;99404.22;5044856;28;20037;-45
2022/04/15 04:51:34;;;;;;;18.60;6.25;;;;;;;10.81;44.09;99399.63;5048001;28;20041;-46
2022/04/15 04:54:00;;;;;;;15.98;5.80;;;;;;;10.88;43.96;99408.06;5039163;28;20081;-43
2022/04/15 04:56:26;;;;;;;22.27;5.57;;;;;;;10.96;44.15;99411.19;5048108;28;20060;-45
2022/04/15 04:58:52;;;;;;;18.80;5.60;;;;;;;11.00;43.67;99417.94;5049971;28;20066;-46
2022/04/15 05:01:18;;;;;;;19.67;5.80;;;;;;;10.79;43.15;99421.41;5042942;28;20057;-44
2022/04/15 05:03:44;;;;;;;19.63;6.20;;;;;;;10.62;43.09;99419.47;5040767;28;20048;-45
2022/04/15 05:06:09;;;;;;;13.18;5.03;;;;;;;10.79;43.32;99413.59;5038660;28;20563;-44
2022/04/15 05:08:35;;;;;;;10.93;3.70;;;;;;;10.95;42.86;99407.72;5038469;28;20072;-45
2022/04/15 05:11:01;;;;;;;11.85;3.50;;;;;;;10.85;42.22;99403.81;5041895;28;20037;-44
2022/04/15 05:13:26;;;;;;;7.68;3.00;;;;;;;10.69;41.56;99412.25;5042312;28;20083;-45
2022/04/15 05:15:52;;;;;;;11.65;3.20;;;;;;;10.65;42.16;99406.34;5050624;28;20071;-44
2022/04/15 05:18:18;;;;;;;7.85;2.97;;;;;;;10.77;41.84;99407.63;5061841;28;20037;-44
2022/04/15 05:20:43;;;;;;;9.27;2.95;;;;;;;10.73;41.86;99385.25;5058332;28;20143;-44
2022/04/15 05:23:09;;;;;;;13.60;3.58;;;;;;;10.77;41.55;99402.44;5044216;28;20041;-44
2022/04/15 05:25:35;;;;;;;8.07;3.55;;;;;;;10.76;42.00;99401.56;5048524;28;20479;-45
2022/04/15 05:28:02;;;;;;;17.10;3.83;;;;;;;10.79;42.18;99398.00;5053906;28;20049;-45
2022/04/15 05:30:28;;;;;;;13.98;3.63;;;;;;;10.72;41.57;99379.22;5043208;28;20429;-44
2022/04/15 05:32:54;;;;;;;13.27;3.65;;;;;;;10.84;41.68;99394.31;5048624;28;20050;-45
2022/04/15 05:35:19;;;;;;;17.20;3.75;;;;;;;10.77;41.57;99397.22;5040350;28;20849;-44
2022/04/15 05:37:45;;;;;;;10.18;3.75;;;;;;;10.83;41.28;99397.84;5024802;28;20161;-45
2022/04/15 05:40:11;;;;;;;8.95;2.92;;;;;;;10.77;41.16;99398.06;5046705;28;20127;-45
2022/04/15 05:42:37;;;;;;;7.05;3.63;;;;;;;10.89;40.94;99394.13;5047826;28;21081;-43
2022/04/15 05:45:03;;;;;;;13.63;3.80;;;;;;;11.04;40.58;99398.72;5052755;28;20044;-44
2022/04/15 05:47:29;;;;;;;10.68;3.25;;;;;;;11.41;39.84;99392.81;5061996;28;20043;-44
2022/04/15 05:49:55;;;;;;;11.13;3.30;;;;;;;11.62;39.67;99397.09;5047545;28;20048;-43
2022/04/15 05:52:21;;;;;;;11.43;3.47;;;;;;;11.91;38.92;99393.28;5049322;28;20133;-43
2022/04/15 05:54:46;;;;;;;14.55;3.70;;;;;;;12.07;38.76;99394.28;5041041;28;20512;-45
2022/04/15 05:57:13;;;;;;;11.23;3.13;;;;;;;12.40;38.54;99396.28;5045588;28;20048;-43
2022/04/15 05:59:38;;;;;;;10.88;2.72;;;;;;;12.84;37.87;99391.53;5039980;28;20051;-43
2022/04/15 06:02:04;;;;;;;15.77;3.55;;;;;;;13.08;36.67;99392.97;5048114;28;20052;-43
2022/04/15 06:04:30;;;;;;;7.97;3.13;;;;;;;13.06;36.15;99386.97;5050480;28;20095;-43
2022/04/15 06:06:56;;;;;;;15.23;3.40;;;;;;;13.14;36.04;99388.31;5041495;28;20041;-44
2022/04/15 06:09:21;;;;;;;11.38;3.83;;;;;;;13.72;35.31;99389.75;5045294;28;20091;-42
2022/04/15 06:11:52;;;;;;;12.32;3.70;;;;;;;14.10;34.62;99383.34;5048883;28;20091;-43
2022/04/15 06:14:21;;;;;;;12.73;3.75;;;;;;;14.50;33.97;99386.47;5039070;28;20041;-41
2022/04/15 06:16:47;;;;;;;9.35;3.20;;;;;;;15.20;31.95;99386.78;5047729;28;20045;-43
2022/04/15 06:19:14;;;;;;;10.18;3.10;;;;;;;15.71;31.38;99387.28;5029649;28;20124;-42
2022/04/15 06:21:40;;;;;;;13.80;3.20;;;;;;;16.02;29.92;99381.88;5044704;28;20044;-42
2022/04/15 06:24:08;;;;;;;14.55;3.35;;;;;;;15.95;30.17;99391.06;5041926;28;20410;-43
2022/04/15 06:26:35;;;;;;;13.43;3.43;;;;;;;16.34;29.65;99379.03;5029894;28;20490;-43
2022/04/15 06:29:01;;;;;;;14.30;3.67;;;;;;;16.93;28.78;99383.13;5042207;28;20053;-43
2022/04/15 06:31:26;;;;;;;12.77;3.78;;;;;;;17.90;27.42;99381.81;5026978;28;20056;-46
2022/04/15 06:33:52;;;;;;;8.02;3.03;;;;;;;18.63;26.01;99382.75;5044128;28;20064;-42
2022/04/15 06:36:19;;;;;;;7.90;3.05;;;;;;;19.06;24.77;99379.63;5036463;28;20144;-42
2022/04/15 06:38:46;;;;;;;9.45;2.92;;;;;;;19.07;23.58;99364.66;5047238;28;20133;-44
2022/04/15 06:41:11;;;;;;;10.02;2.70;;;;;;;19.44;23.77;99380.28;5075478;28;20056;-43
2022/04/15 06:43:37;;;;;;;5.63;2.58;;;;;;;19.19;22.99;99369.03;5044029;28;20045;-43
2022/04/15 06:46:03;;;;;;;10.93;3.20;;;;;;;19.68;23.53;99369.66;5038578;28;20050;-43
2022/04/15 06:48:29;;;;;;;9.82;3.47;;;;;;;20.58;23.54;99381.06;5049192;28;20094;-42
2022/04/15 06:50:55;;;;;;;16.33;3.83;;;;;;;21.47;22.57;99371.03;5057970;28;20140;-46
2022/04/15 06:53:24;;;;;;;15.75;3.70;;;;;;;22.10;21.71;99369.19;5048323;28;20132;-44
2022/04/15 06:55:50;;;;;;;7.70;3.53;;;;;;;22.56;21.52;99371.28;5045460;28;20401;-44
2022/04/15 06:58:17;;;;;;;10.93;3.40;;;;;;;23.23;20.50;99350.16;5045050;28;20432;-43
2022/04/15 07:00:43;;;;;;;9.35;3.72;;;;;;;24.03;19.83;99362.97;5056429;28;20068;-43
2022/04/15 07:03:09;;;;;;;13.15;4.00;;;;;;;24.41;19.47;99366.47;5056581;28;20040;-38
2022/04/15 07:05:35;;;;;;;15.15;3.85;;;;;;;24.32;19.78;99357.59;5043072;28;20045;-40
2022/04/15 07:08:01;;;;;;;11.18;4.20;;;;;;;24.65;19.84;99357.97;5042676;28;20807;-39
2022/04/15 07:10:27;;;;;;;15.10;4.72;;;;;;;25.40;19.09;99352.19;5046457;28;20040;-39
2022/04/15 07:12:53;;;;;;;17.35;4.13;;;;;;;25.96;18.43;99353.59;5080753;28;20036;-38
2022/04/15 07:15:20;;;;;;;14.35;3.58;;;;;;;26.29;17.90;99342.09;5041858;28;20045;-37
2022/04/15 07:17:46;;;;;;;14.07;4.43;;;;;;;26.43;18.01;99346.00;5044801;28;20037;-41
2022/04/15 07:20:11;;;;;;;28.33;6.72;;;;;;;26.44;17.98;99351.16;5046625;28;20122;-39
2022/04/15 07:22:37;;;;;;;17.55;4.85;;;;;;;26.48;18.03;99338.34;5045330;28;20049;-39
2022/04/15 07:25:04;;;;;;;13.15;3.90;;;;;;;26.67;17.67;99343.41;5048291;28;20045;-40
2022/04/15 07:27:29;;;;;;;27.73;7.72;;;;;;;27.28;17.49;99344.81;5046771;28;20044;-39
2022/04/15 07:29:55;;;;;;;14.40;7.05;;;;;;;27.45;17.34;99349.13;5049068;28;20505;-39
2022/04/15 07:32:22;;;;;;;18.25;6.50;;;;;;;27.38;17.18;99343.63;5048009;28;20045;-40
2022/04/15 07:34:49;;;;;;;14.48;4.07;;;;;;;27.27;16.94;99335.13;5025384;28;20115;-38
2022/04/15 07:37:16;;;;;;;10.95;4.13;;;;;;;26.88;17.01;99337.63;5029014;28;20041;-40
2022/04/15 07:39:42;;;;;;;16.42;4.95;;;;;;;26.72;17.11;99341.06;5046769;28;20132;-39
2022/04/15 07:42:07;;;;;;;16.55;5.07;;;;;;;26.83;17.38;99327.41;5027562;28;20186;-39
2022/04/15 07:44:33;;;;;;;13.57;4.68;;;;;;;26.68;17.14;99337.06;5047408;28;20049;-39
2022/04/15 07:46:59;;;;;;;9.57;4.43;;;;;;;26.32;17.52;99328.47;5047029;28;20041;-38
2022/04/15 07:49:25;;;;;;;12.60;4.45;;;;;;;26.46;17.24;99325.19;5063893;28;20410;-39
2022/04/15 07:51:50;;;;;;;12.88;3.53;;;;;;;26.57;16.96;99326.69;5047545;28;20147;-39
2022/04/15 07:54:16;;;;;;;6.05;3.17;;;;;;;26.73;16.80;99333.91;5079636;28;20043;-39
2022/04/15 07:56:42;;;;;;;10.13;4.75;;;;;;;26.88;16.66;99332.28;5048445;28;20863;-40
2022/04/15 07:59:08;;;;;;;7.47;3.45;;;;;;;26.49;17.11;99316.84;5043226;28;20044;-39
2022/04/15 08:01:34;;;;;;;11.70;3.22;;;;;;;26.11;17.10;99312.88;5046202;28;20065;-38
2022/04/15 08:04:00;;;;;;;10.40;3.40;;;;;;;25.83;17.58;99316.72;5044892;28;20047;-40
2022/04/15 08:06:30;;;;;;;7.85;3.25;;;;;;;25.41;17.65;99316.59;5048814;28;20508;-39
2022/04/15 08:08:56;;;;;;;7.68;2.70;;;;;;;24.69;17.97;99309.66;5041854;28;20044;-40
2022/04/15 08:11:24;;;;;;;7.22;2.40;;;;;;;24.56;18.08;99316.31;5047298;28;20083;-39
2022/04/15 08:13:49;;;;;;;7.60;2.45;;;;;;;24.27;18.29;99324.47;5043866;28;20132;-38
2022/04/15 08:16:16;;;;;;;10.93;3.55;;;;;;;24.17;18.07;99321.88;5045507;28;20037;-39
2022/04/15 08:18:42;;;;;;;8.45;2.60;;;;;;;24.02;18.11;99320.66;5047482;28;20036;-39
2022/04/15 08:21:08;;;;;;;6.10;2.75;;;;;;;23.95;18.18;99311.59;5047660;28;20041;-39
2022/04/15 08:23:33;;;;;;;5.35;2.60;;;;;;;23.87;18.34;99304.34;5043426;28;20197;-38
2022/04/15 08:25:59;;;;;;;11.02;2.78;;;;;;;24.07;18.37;99305.91;5046906;28;20044;-39
2022/04/15 08:28:25;;;;;;;9.35;2.75;;;;;;;24.40;18.37;99303.69;5079206;28;20048;-39
2022/04/15 08:30:50;;;;;;;9.63;3.35;;;;;;;24.58;18.44;99304.56;5063739;28;20520;-38
2022/04/15 08:33:16;;;;;;;15.73;10.98;;;;;;;24.85;18.15;99293.00;5047151;28;20047;-40
2022/04/15 08:35:42;;;;;;;9.23;4.32;;;;;;;25.16;17.97;99299.63;5047937;28;20106;-38
2022/04/15 08:38:08;;;;;;;2.53;1.45;;;;;;;25.39;17.11;99299.94;5047997;28;20044;-40
2022/04/15 08:40:36;;;;;;;8.45;1.80;;;;;;;24.76;17.21;99284.09;5046855;28;20045;-38
2022/04/15 08:43:04;;;;;;;4.05;1.33;;;;;;;24.33;17.91;99302.63;5046773;28;20060;-37
2022/04/15 08:45:31;;;;;;;4.30;1.25;;;;;;;23.57;18.46;99300.13;5048045;28;20048;-39
2022/04/15 08:48:01;;;;;;;4.70;1.48;;;;;;;24.38;18.02;99295.88;5046579;28;20052;-38
2022/04/15 08:50:28;;;;;;;7.50;1.40;;;;;;;25.12;17.69;99292.91;5050592;28;20581;-39
2022/04/15 08:52:55;;;;;;;9.82;1.23;;;;;;;25.07;17.72;99291.75;5034370;28;20128;-39
2022/04/15 08:55:21;;;;;;;4.85;1.20;;;;;;;24.08;18.55;99301.44;5052205;28;20888;-38
2022/04/15 08:57:51;;;;;;;5.05;1.20;;;;;;;22.78;19.71;99293.34;5052125;28;20033;-39
2022/04/15 09:00:19;;;;;;;3.00;0.95;;;;;;;21.85;20.65;99292.84;5050154;28;20036;-42
2022/04/15 09:02:45;;;;;;;5.15;1.50;;;;;;;21.16;21.20;99292.59;5043226;28;20053;-39
2022/04/15 09:05:12;;;;;;;6.32;1.20;;;;;;;20.34;22.19;99277.44;5046250;28;20128;-39
2022/04/15 09:07:38;;;;;;;5.18;1.60;;;;;;;20.15;22.64;99286.78;5033311;28;20114;-38
2022/04/15 09:10:06;;;;;;;3.45;1.17;;;;;;;19.99;22.75;99296.91;5050555;28;20155;-40
2022/04/15 09:12:35;;;;;;;4.10;1.10;;;;;;;19.18;23.49;99293.56;5049741;28;20086;-39
2022/04/15 09:15:07;;;;;;;2.25;1.05;;;;;;;18.50;24.08;99294.22;5050631;28;20033;-37
2022/04/15 09:17:37;;;;;;;2.72;1.23;;;;;;;18.12;24.74;99287.31;5048435;28;20044;-38
2022/04/15 09:20:05;;;;;;;7.20;1.20;;;;;;;18.08;24.90;99292.91;5050877;28;20081;-40
2022/04/15 09:22:32;;;;;;;;;;;;;;;17.20;25.73;99284.13;5082045;28;20045;-41
2022/04/15 09:24:59;;;;;;;9.77;1.75;;;;;;;16.82;26.62;99283.22;5061286;28;20016;-41
2022/04/15 09:27:26;;;;;;;5.15;1.70;;;;;;;16.86;26.61;99289.94;5050460;28;20048;-38
2022/04/15 09:29:54;;;;;;;4.00;1.30;;;;;;;16.53;27.22;99293.81;5050515;28;20564;-39
2022/04/15 09:32:22;;;;;;;6.63;1.40;;;;;;;16.66;27.28;99288.63;5048857;28;20531;-38
2022/04/15 09:35:06;;;;;;;4.32;1.83;;;;;;;16.81;27.05;99279.72;5051226;28;20834;-38
2022/04/15 09:37:35;;;;;;;8.07;1.33;;;;;;;16.79;27.10;99281.66;5050446;28;20039;-39
2022/04/15 09:40:18;;;;;;;5.72;1.80;;;;;;;17.16;26.85;99282.66;5049270;28;20068;-38
2022/04/15 09:42:44;;;;;;;1.70;1.10;;;;;;;17.16;26.74;99279.19;5050466;28;20041;-38
2022/04/15 09:45:20;;;;;;;4.40;1.17;;;;;;;17.11;26.96;99283.91;5050573;28;20131;-40
2022/04/15 09:47:59;;;;;;;2.88;1.10;;;;;;;16.79;27.54;99284.25;5049954;28;20050;-39
2022/04/15 09:50:34;;;;;;;;;;;;;;;16.66;28.03;99293.03;5048463;28;20041;-38
2022/04/15 09:53:13;;;;;;;3.13;1.20;;;;;;;16.52;28.55;99292.13;5068965;28;20011;-38
2022/04/15 09:55:40;;;;;;;;;;;;;;;16.34;29.11;99295.06;5050306;28;20044;-38
2022/04/15 09:58:13;;;;;;;5.65;1.30;;;;;;;16.01;29.42;99295.44;5046719;28;19916;-39
2022/04/15 10:00:41;;;;;;;2.13;1.13;;;;;;;16.26;29.33;99286.88;5047063;28;20065;-39
2022/04/15 10:03:09;;;;;;;3.83;1.20;;;;;;;16.16;29.46;99298.88;5049592;28;20041;-39
2022/04/15 10:05:36;;;;;;;4.90;1.73;;;;;;;16.03;29.97;99314.53;5050741;28;20497;-39
2022/04/15 10:08:03;;;;;;;3.75;1.20;;;;;;;15.49;30.67;99306.47;5050667;28;20420;-40
2022/04/15 10:10:31;;;;;;;6.00;1.40;;;;;;;15.19;31.47;99300.44;5049342;28;20033;-39
2022/04/15 10:13:02;;;;;;;4.38;1.35;;;;;;;14.88;31.93;99288.31;5049372;28;20094;-39
2022/04/15 10:15:31;;;;;;;2.28;1.33;;;;;;;15.09;31.84;99312.41;5050158;28;20293;-39
2022/04/15 10:17:58;;;;;;;4.35;1.33;;;;;;;15.04;32.37;99311.81;5050407;28;20032;-39
2022/04/15 10:20:25;;;;;;;4.30;1.00;;;;;;;15.08;32.38;99319.41;5050656;28;20076;-38
2022/04/15 10:22:51;;;;;;;5.97;1.20;;;;;;;15.12;32.19;99315.69;5048488;28;20429;-38
2022/04/15 10:25:18;;;;;;;3.20;1.02;;;;;;;15.11;32.46;99308.78;5047746;28;20040;-40
2022/04/15 10:27:44;;;;;;;4.82;1.23;;;;;;;14.90;32.90;99290.84;5040016;28;20103;-40
2022/04/15 10:30:19;;;;;;;6.82;1.40;;;;;;;14.78;33.25;99311.56;5076821;28;20045;-40
2022/04/15 10:32:52;;;;;;;1.85;1.10;;;;;;;14.66;33.72;99320.09;5049481;28;20041;-40
2022/04/15 10:35:29;;;;;;;2.60;1.27;;;;;;;14.43;34.01;99309.25;5050334;28;20037;-40
2022/04/15 10:38:06;;;;;;;5.55;1.40;;;;;;;14.52;33.96;99303.50;5029126;28;20570;-40
2022/04/15 10:40:33;;;;;;;4.65;1.23;;;;;;;14.70;33.98;99303.31;5032297;28;20064;-39
2022/04/15 10:43:24;;;;;;;3.42;1.23;;;;;;;14.93;34.22;99298.50;5048331;28;20044;-39
2022/04/15 10:45:54;;;;;;;6.32;1.58;;;;;;;15.30;33.91;99297.19;5048077;28;20124;-39
2022/04/15 10:48:29;;;;;;;3.05;1.33;;;;;;;15.28;34.00;99294.69;5047897;28;20041;-38
2022/04/15 10:50:55;;;;;;;4.32;1.40;;;;;;;15.36;33.86;99284.56;5050067;28;20049;-41
2022/04/15 10:53:20;;;;;;;3.42;1.30;;;;;;;15.67;33.53;99289.66;5048300;28;20041;-40
2022/04/15 10:55:54;;;;;;;5.25;1.23;;;;;;;15.96;33.54;99289.66;5059597;28;20041;-39
2022/04/15 10:58:21;;;;;;;7.13;1.23;;;;;;;15.99;33.32;99286.84;5045912;28;20102;-41
2022/04/15 11:01:18;;;;;;;4.93;1.42;;;;;;;15.82;33.67;99282.63;5063612;28;20128;-40
2022/04/15 11:03:53;;;;;;;6.20;1.65;;;;;;;15.43;33.84;99283.28;5063383;28;20049;-40
2022/04/15 11:06:26;;;;;;;3.92;1.10;;;;;;;15.07;34.58;99281.06;5048377;28;20119;-42
2022/04/15 11:08:52;;;;;;;3.25;1.35;;;;;;;14.74;34.86;99283.03;5047902;28;20041;-38
2022/04/15 11:11:33;;;;;;;1.80;1.17;;;;;;;14.26;35.39;99252.63;5048614;28;20159;-40
2022/04/15 11:14:02;;;;;;;2.58;1.30;;;;;;;14.29;35.70;99281.22;5046739;28;20178;-40
2022/04/15 11:16:41;;;;;;;7.30;1.55;;;;;;;14.47;35.80;99274.16;5046163;28;20045;-38
2022/04/15 11:19:07;;;;;;;;;;;;;;;14.61;35.77;99271.59;5037514;28;20036;-39
2022/04/15 11:21:36;;;;;;;4.05;1.48;;;;;;;14.70;35.92;99274.53;5081663;28;19916;-39
2022/04/15 11:24:04;;;;;;;4.05;1.50;;;;;;;14.71;35.86;99268.34;5048267;28;20098;-40
2022/04/15 11:26:30;;;;;;;7.40;1.50;;;;;;;14.69;35.85;99266.75;5047171;28;20420;-40
2022/04/15 11:29:01;;;;;;;9.88;3.95;;;;;;;14.74;36.11;99268.19;5047143;28;20045;-39
2022/04/15 11:31:31;;;;;;;4.05;1.20;;;;;;;14.81;36.06;99255.59;5049262;28;20048;-38